createdAt,value
2022-10-25T00:01:48.415Z,1.48
2022-10-25T00:04:52.889Z,0.93
2022-10-25T00:07:57.097Z,0.90
2022-10-25T00:11:00.477Z,1.23
2022-10-25T00:14:06.871Z,1.30
2022-10-25T00:17:11.511Z,1.42
2022-10-25T00:20:15.659Z,1.48
2022-10-25T00:23:19.158Z,1.23
2022-10-25T00:26:23.651Z,1.58
2022-10-25T00:29:27.207Z,1.40
2022-10-25T00:32:31.164Z,1.25
2022-10-25T00:35:37.128Z,1.13
2022-10-25T00:38:41.456Z,1.30
2022-10-25T00:41:45.192Z,1.63
2022-10-25T00:44:56.866Z,1.13
2022-10-25T00:48:07.311Z,1.60
2022-10-25T00:51:11.083Z,1.77
2022-10-25T00:58:04.775Z,1.70
2022-10-25T01:01:10.899Z,1.48
2022-10-25T01:04:18.595Z,1.67
2022-10-25T01:07:22.338Z,1.50
2022-10-25T01:10:27.202Z,1.35
2022-10-25T01:13:30.898Z,3.03
2022-10-25T01:17:01.430Z,3.25
2022-10-25T01:20:32.469Z,2.38
2022-10-25T01:23:51.483Z,1.63
2022-10-25T01:26:57.727Z,2.05
2022-10-25T01:30:07.503Z,2.08
2022-10-25T01:33:16.699Z,1.23
2022-10-25T01:36:47.640Z,1.80
2022-10-25T01:39:57.231Z,2.05
2022-10-25T01:43:15.135Z,1.30
2022-10-25T01:49:36.740Z,1.48
2022-10-25T01:52:40.472Z,1.52
2022-10-25T01:56:01.360Z,1.95
2022-10-25T01:59:41.476Z,2.30
2022-10-25T02:02:55.946Z,2.60
2022-10-25T02:06:09.149Z,1.38
2022-10-25T02:09:18.183Z,1.20
2022-10-25T02:12:38.019Z,1.02
2022-10-25T02:15:44.939Z,0.90
2022-10-25T02:21:55.291Z,1.23
2022-10-25T02:25:00.656Z,0.85
2022-10-25T02:28:08.959Z,1.27
2022-10-25T02:31:17.879Z,0.90
2022-10-25T02:34:21.543Z,0.70
2022-10-25T02:37:25.325Z,0.50
2022-10-25T02:40:29.102Z,1.23
2022-10-25T02:43:33.058Z,2.40
2022-10-25T02:46:37.219Z,1.63
2022-10-25T02:49:41.108Z,1.08
2022-10-25T02:52:49.142Z,1.20
2022-10-25T02:56:09.877Z,1.33
2022-10-25T02:59:16.549Z,1.55
2022-10-25T03:02:22.502Z,0.82
2022-10-25T03:09:12.218Z,0.80
2022-10-25T03:12:24.936Z,1.05
2022-10-25T03:15:38.468Z,0.87
2022-10-25T03:18:44.019Z,0.90
2022-10-25T03:21:49.570Z,0.65
2022-10-25T03:24:57.107Z,1.30
2022-10-25T03:28:03.225Z,1.30
2022-10-25T03:34:51.053Z,1.00
2022-10-25T03:41:16.738Z,0.60
2022-10-25T03:47:44.657Z,1.05
2022-10-25T03:54:14.581Z,0.77
2022-10-25T03:57:20.022Z,0.80
2022-10-25T04:00:26.968Z,0.93
2022-10-25T04:03:35.014Z,1.50
2022-10-25T04:06:41.822Z,0.90
2022-10-25T04:13:09.683Z,0.90
2022-10-25T04:16:23.474Z,0.80
2022-10-25T04:19:28.995Z,0.90
2022-10-25T04:25:41.208Z,0.70
2022-10-25T04:28:59.138Z,0.90
2022-10-25T04:43:56.587Z,0.75
2022-10-25T04:47:02.135Z,1.02
2022-10-25T04:50:08.595Z,1.00
2022-10-25T04:53:14.570Z,0.60
2022-10-25T04:59:53.561Z,1.27
2022-10-25T05:03:20.419Z,3.00
2022-10-25T05:06:30.645Z,0.90
2022-10-25T05:09:42.661Z,0.50
2022-10-25T05:13:16.232Z,2.55
2022-10-25T05:24:11.820Z,2.30
2022-10-25T05:27:15.621Z,1.27
2022-10-25T05:30:20.653Z,0.60
2022-10-25T05:33:25.022Z,0.73
2022-10-25T05:36:30.166Z,0.55
2022-10-25T05:43:04.476Z,1.17
2022-10-25T06:07:38.424Z,1.02
2022-10-25T06:13:51.572Z,0.63
2022-10-25T06:16:58.444Z,0.70
2022-10-25T06:20:04.012Z,0.70
2022-10-25T06:23:11.111Z,0.50
2022-10-25T06:26:38.233Z,0.75
2022-10-25T06:29:51.884Z,0.63
2022-10-25T06:33:04.453Z,0.70
2022-10-25T06:36:19.623Z,1.10
2022-10-25T06:47:29.430Z,0.50
2022-10-25T06:50:38.946Z,0.82
2022-10-25T06:53:46.136Z,1.08
2022-10-25T07:08:15.365Z,0.80
2022-10-25T07:11:25.972Z,0.50
2022-10-25T07:14:33.254Z,0.40
2022-10-25T07:17:38.658Z,1.25
2022-10-25T07:24:12.725Z,0.70
2022-10-25T07:30:38.268Z,0.65
2022-10-25T10:32:26.038Z,6.15
2022-10-25T10:54:35.582Z,7.80
2022-10-25T10:57:40.116Z,7.40
2022-10-25T11:01:00.496Z,3.90
2022-10-25T11:04:07.184Z,4.78
2022-10-25T11:07:20.852Z,7.10
2022-10-25T11:10:30.258Z,3.08
2022-10-25T11:13:36.692Z,5.03
2022-10-25T11:16:56.504Z,3.95
2022-10-25T11:20:16.195Z,3.47
2022-10-25T11:23:44.618Z,4.72
2022-10-25T11:27:13.033Z,6.25
2022-10-25T11:30:25.271Z,5.55
2022-10-25T11:34:07.966Z,6.45
2022-10-25T11:37:30.039Z,6.93
2022-10-25T11:40:42.311Z,8.07
2022-10-25T11:43:48.718Z,6.13
2022-10-25T11:47:04.715Z,5.40
2022-10-25T11:50:19.972Z,4.50
2022-10-25T11:54:01.077Z,3.80
2022-10-25T11:57:43.874Z,2.97
2022-10-25T12:00:56.082Z,4.85
2022-10-25T12:04:09.644Z,5.20
2022-10-25T12:07:38.726Z,4.57
2022-10-25T12:11:05.192Z,5.35
2022-10-25T12:14:14.666Z,5.65
2022-10-25T12:17:33.270Z,4.90
2022-10-25T12:20:39.982Z,5.40
2022-10-25T12:23:50.417Z,2.53
2022-10-25T12:26:57.190Z,5.45
2022-10-25T12:30:08.257Z,5.53
2022-10-25T12:33:25.042Z,4.70
2022-10-25T12:36:45.659Z,4.57
2022-10-25T12:39:49.255Z,5.35
2022-10-25T12:42:58.866Z,4.75
2022-10-25T12:46:35.163Z,5.03
2022-10-25T12:50:09.233Z,4.10
2022-10-25T12:53:33.000Z,4.10
2022-10-25T12:57:03.753Z,5.20
2022-10-25T13:00:22.062Z,3.70
2022-10-25T13:03:58.944Z,4.00
2022-10-25T13:07:05.927Z,3.97
2022-10-25T13:10:20.289Z,4.95
2022-10-25T13:13:28.462Z,5.65
2022-10-25T13:16:35.047Z,5.82
2022-10-25T13:19:54.995Z,5.22
2022-10-25T13:22:58.888Z,4.68
2022-10-25T13:26:06.546Z,4.63
2022-10-25T13:29:47.557Z,3.30
2022-10-25T13:33:24.984Z,5.50
2022-10-25T13:36:54.838Z,4.63
2022-10-25T13:40:08.054Z,3.63
2022-10-25T13:43:23.945Z,2.80
2022-10-25T13:46:41.918Z,2.95
2022-10-25T13:49:49.626Z,4.32
2022-10-25T13:53:03.223Z,5.20
2022-10-25T13:56:19.067Z,2.42
2022-10-25T13:59:47.358Z,3.40
2022-10-25T14:03:16.836Z,2.38
2022-10-25T14:06:29.972Z,1.55
2022-10-25T14:09:40.498Z,1.90
2022-10-25T14:12:49.385Z,3.05
2022-10-25T14:15:59.560Z,2.20
2022-10-25T14:19:45.495Z,2.30
2022-10-25T14:23:01.445Z,2.70
2022-10-25T14:26:13.525Z,2.70
2022-10-25T14:29:21.859Z,3.75
2022-10-25T14:32:25.588Z,5.40
2022-10-25T14:35:48.458Z,4.95
2022-10-25T14:39:04.324Z,2.30
2022-10-25T14:42:17.590Z,2.78
2022-10-25T14:45:25.277Z,3.08
2022-10-25T14:48:30.340Z,5.80
2022-10-25T14:51:38.054Z,2.90
2022-10-25T14:54:42.602Z,6.07
2022-10-25T14:57:47.477Z,8.63
2022-10-25T15:00:59.986Z,4.05
2022-10-25T15:04:03.758Z,4.30
2022-10-25T15:07:17.528Z,3.67
2022-10-25T15:10:41.868Z,2.55
2022-10-25T15:13:50.256Z,3.70
2022-10-25T15:17:03.092Z,4.53
2022-10-25T15:20:15.151Z,3.20
2022-10-25T15:23:25.055Z,4.72
2022-10-25T15:26:33.551Z,3.63
2022-10-25T15:29:41.776Z,2.38
2022-10-25T15:32:45.831Z,1.77
2022-10-25T15:36:09.072Z,2.00
2022-10-25T15:39:28.082Z,2.15
2022-10-25T15:42:32.697Z,2.47
2022-10-25T15:45:38.237Z,1.88
2022-10-25T15:48:43.922Z,2.40
2022-10-25T15:51:47.449Z,2.03
2022-10-25T15:54:51.734Z,1.90
2022-10-25T15:57:55.897Z,2.60
2022-10-25T16:01:01.217Z,2.05
2022-10-25T16:04:07.713Z,3.38
2022-10-25T16:07:17.228Z,3.00
2022-10-25T16:10:29.856Z,1.77
2022-10-25T16:13:40.404Z,2.10
2022-10-25T16:16:47.088Z,1.33
2022-10-25T16:19:52.056Z,1.55
2022-10-25T16:22:56.534Z,2.30
2022-10-25T16:26:00.648Z,2.65
2022-10-25T16:29:04.438Z,1.50
2022-10-25T16:32:08.401Z,1.67
2022-10-25T16:35:14.254Z,1.77
2022-10-25T16:38:18.362Z,2.05
2022-10-25T16:41:27.253Z,1.88
2022-10-25T16:44:31.360Z,1.80
2022-10-25T16:47:34.699Z,2.15
2022-10-25T16:50:38.943Z,1.60
2022-10-25T16:53:42.469Z,2.55
2022-10-25T16:56:46.540Z,1.90
2022-10-25T16:59:51.190Z,2.05
2022-10-25T17:02:54.967Z,2.40
2022-10-25T17:06:00.346Z,1.92
2022-10-25T17:09:04.174Z,2.20
2022-10-25T17:12:07.318Z,2.25
2022-10-25T17:15:11.657Z,2.88
2022-10-25T17:18:19.150Z,2.15
2022-10-25T17:21:24.344Z,1.90
2022-10-25T17:24:28.708Z,2.30
2022-10-25T17:27:33.077Z,2.60
2022-10-25T17:30:36.470Z,1.35
2022-10-25T17:33:41.652Z,2.60
2022-10-25T17:36:44.656Z,1.90
2022-10-25T17:39:48.019Z,2.45
2022-10-25T17:42:52.861Z,1.30
2022-10-25T17:46:08.611Z,2.10
2022-10-25T17:49:11.928Z,2.40
2022-10-25T17:52:19.132Z,2.63
2022-10-25T17:55:22.254Z,2.67
2022-10-25T17:58:25.835Z,3.40
2022-10-25T18:01:32.357Z,3.15
2022-10-25T18:04:53.328Z,2.72
2022-10-25T18:07:57.812Z,3.45
2022-10-25T18:11:09.596Z,4.18
2022-10-25T18:14:12.983Z,3.38
2022-10-25T18:17:16.984Z,2.72
2022-10-25T18:20:20.750Z,3.38
2022-10-25T18:23:24.374Z,3.53
2022-10-25T18:26:28.916Z,3.72
2022-10-25T18:29:38.710Z,4.95
2022-10-25T18:32:42.863Z,4.10
2022-10-25T18:35:46.859Z,3.20
2022-10-25T18:38:51.084Z,2.92
2022-10-25T18:41:56.521Z,3.70
2022-10-25T18:45:00.342Z,3.10
2022-10-25T18:48:04.317Z,2.97
2022-10-25T18:51:11.967Z,2.60
2022-10-25T18:54:16.016Z,2.55
2022-10-25T18:57:19.853Z,3.60
2022-10-25T19:00:28.629Z,2.70
2022-10-25T19:03:31.982Z,2.20
2022-10-25T19:06:36.166Z,2.30
2022-10-25T19:09:39.855Z,1.90
2022-10-25T19:12:43.591Z,1.67
2022-10-25T19:15:47.799Z,2.33
2022-10-25T19:18:51.780Z,3.15
2022-10-25T19:21:55.087Z,2.67
2022-10-25T19:28:07.176Z,2.50
2022-10-25T19:31:18.806Z,2.45
2022-10-25T19:34:22.174Z,2.47
2022-10-25T19:37:26.221Z,2.47
2022-10-25T19:40:29.885Z,2.88
2022-10-25T19:43:34.948Z,3.80
2022-10-25T19:46:38.581Z,3.03
2022-10-25T19:49:42.751Z,3.25
2022-10-25T19:52:46.988Z,2.50
2022-10-25T19:56:08.161Z,3.05
2022-10-25T19:59:12.374Z,2.70
2022-10-25T20:02:15.885Z,2.13
2022-10-25T20:05:19.121Z,2.42
2022-10-25T20:08:22.825Z,2.35
2022-10-25T20:11:26.841Z,2.03
2022-10-25T20:14:31.717Z,1.80
2022-10-25T20:17:34.880Z,2.10
2022-10-25T20:20:39.923Z,2.40
2022-10-25T20:23:50.693Z,2.22
2022-10-25T20:26:54.167Z,2.22
2022-10-25T20:29:57.878Z,2.30
2022-10-25T20:33:02.747Z,2.30
2022-10-25T20:36:10.484Z,1.83
2022-10-25T20:39:14.356Z,3.22
2022-10-25T20:42:18.244Z,2.35
2022-10-25T20:45:21.317Z,3.00
2022-10-25T20:48:24.396Z,2.22
2022-10-25T20:51:28.741Z,2.92
2022-10-25T20:54:31.820Z,2.75
2022-10-25T20:57:38.170Z,3.00
2022-10-25T21:00:41.970Z,2.50
2022-10-25T21:03:45.717Z,2.97
2022-10-25T21:06:49.786Z,3.00
2022-10-25T21:09:53.318Z,4.32
2022-10-25T21:12:56.273Z,3.20
2022-10-25T21:16:05.336Z,4.50
2022-10-25T21:19:08.963Z,4.18
2022-10-25T21:22:12.373Z,3.40
2022-10-25T21:25:16.565Z,3.83
2022-10-25T21:28:19.851Z,5.75
2022-10-25T21:31:23.597Z,4.75
2022-10-25T21:34:26.868Z,3.95
2022-10-25T21:37:30.507Z,5.07
2022-10-25T21:40:33.961Z,4.93
2022-10-25T21:43:38.729Z,2.28
2022-10-25T21:46:42.318Z,3.95
2022-10-25T21:49:45.578Z,3.70
2022-10-25T21:52:49.648Z,3.65
2022-10-25T21:56:13.721Z,3.47
2022-10-25T21:59:17.899Z,3.78
2022-10-25T22:02:21.507Z,4.20
2022-10-25T22:05:25.662Z,2.95
2022-10-25T22:08:28.611Z,6.55
2022-10-25T22:11:35.574Z,5.38
2022-10-25T22:14:39.446Z,4.07
2022-10-25T22:17:43.638Z,5.22
2022-10-25T22:20:54.688Z,4.05
2022-10-25T22:23:59.303Z,2.40
2022-10-25T22:27:02.690Z,3.35
2022-10-25T22:30:07.183Z,4.13
2022-10-25T22:33:12.803Z,3.28
2022-10-25T22:36:18.192Z,4.43
2022-10-25T22:39:21.088Z,4.90
2022-10-25T22:42:26.092Z,5.55
2022-10-25T22:45:29.682Z,5.03
2022-10-25T22:48:38.208Z,5.80
2022-10-25T22:51:41.846Z,5.45
2022-10-25T22:54:46.192Z,6.55
2022-10-25T22:57:49.732Z,5.70
2022-10-25T23:00:58.672Z,6.28
2022-10-25T23:04:04.719Z,3.88
2022-10-25T23:07:08.700Z,4.53
2022-10-25T23:10:11.635Z,5.65
2022-10-25T23:13:14.776Z,6.43
2022-10-25T23:16:19.351Z,8.75
2022-10-25T23:19:23.129Z,7.38
2022-10-25T23:22:26.990Z,5.57
2022-10-25T23:25:30.471Z,5.72
2022-10-25T23:28:39.808Z,6.45
2022-10-25T23:31:49.135Z,7.43
2022-10-25T23:34:58.886Z,7.88
2022-10-25T23:38:05.355Z,6.85
2022-10-25T23:44:20.245Z,4.78
2022-10-25T23:50:33.404Z,5.13
2022-10-25T23:53:39.336Z,5.40
2022-10-25T23:56:43.239Z,4.97
2022-10-25T23:59:47.552Z,4.47
